createdAt,value
2023-02-28T00:00:01.652Z,5.90
2023-02-28T00:02:37.596Z,5.80
2023-02-28T00:05:10.796Z,5.80
2023-02-28T00:07:39.392Z,5.80
2023-02-28T00:10:08.706Z,5.80
2023-02-28T00:12:38.082Z,5.80
2023-02-28T00:15:11.602Z,5.80
2023-02-28T00:17:39.538Z,5.80
2023-02-28T00:20:11.427Z,5.80
2023-02-28T00:22:40.992Z,5.80
2023-02-28T00:25:09.806Z,5.70
2023-02-28T00:27:38.569Z,5.80
2023-02-28T00:30:09.321Z,5.80
2023-02-28T00:32:38.528Z,5.80
2023-02-28T00:35:06.996Z,5.80
2023-02-28T00:37:34.929Z,5.70
2023-02-28T00:40:02.359Z,5.70
2023-02-28T00:42:29.773Z,5.70
2023-02-28T00:44:57.270Z,5.70
2023-02-28T00:47:24.391Z,5.70
2023-02-28T00:49:51.518Z,5.70
2023-02-28T00:52:19.143Z,5.70
2023-02-28T00:54:46.277Z,5.70
2023-02-28T00:57:15.779Z,5.70
2023-02-28T00:59:43.660Z,5.70
2023-02-28T01:02:11.758Z,5.60
2023-02-28T01:04:39.027Z,5.60
2023-02-28T01:07:06.157Z,5.60
2023-02-28T01:09:33.408Z,5.50
2023-02-28T01:12:01.173Z,5.50
2023-02-28T01:14:28.589Z,5.50
2023-02-28T01:16:56.363Z,5.40
2023-02-28T01:19:25.982Z,5.40
2023-02-28T01:21:53.278Z,5.40
2023-02-28T01:24:20.531Z,5.30
2023-02-28T01:26:48.046Z,5.30
2023-02-28T01:29:16.439Z,5.30
2023-02-28T01:31:43.560Z,5.30
2023-02-28T01:34:11.115Z,5.30
2023-02-28T01:36:38.533Z,5.20
2023-02-28T01:39:05.950Z,5.20
2023-02-28T01:41:35.397Z,5.20
2023-02-28T01:44:04.673Z,5.20
2023-02-28T01:46:36.617Z,5.20
2023-02-28T01:49:12.754Z,5.20
2023-02-28T01:51:53.367Z,5.10
2023-02-28T01:54:27.591Z,5.10
2023-02-28T01:56:59.805Z,5.10
2023-02-28T01:59:39.514Z,5.10
2023-02-28T02:02:06.976Z,5.10
2023-02-28T02:04:41.382Z,5.10
2023-02-28T02:07:09.332Z,5.10
2023-02-28T02:09:36.583Z,5.10
2023-02-28T02:12:26.873Z,5.10
2023-02-28T02:15:25.439Z,5.10
2023-02-28T02:17:57.539Z,5.10
2023-02-28T02:21:02.822Z,5.10
2023-02-28T02:23:51.876Z,5.10
2023-02-28T02:26:37.867Z,5.10
2023-02-28T02:29:08.113Z,5.00
2023-02-28T02:32:01.560Z,5.00
2023-02-28T02:34:59.820Z,5.00
2023-02-28T02:37:33.796Z,5.00
2023-02-28T02:40:21.376Z,5.00
2023-02-28T02:43:08.150Z,5.00
2023-02-28T02:45:40.592Z,5.00
2023-02-28T02:48:14.278Z,5.00
2023-02-28T02:50:50.010Z,5.00
2023-02-28T02:53:21.311Z,5.00
2023-02-28T02:55:55.436Z,5.00
2023-02-28T02:58:29.138Z,5.00
2023-02-28T03:01:01.420Z,5.00
2023-02-28T03:03:31.116Z,5.00
2023-02-28T03:06:00.981Z,5.00
2023-02-28T03:08:31.473Z,5.00
2023-02-28T03:11:01.429Z,5.00
2023-02-28T03:13:46.620Z,5.00
2023-02-28T03:16:51.369Z,5.00
2023-02-28T03:19:48.973Z,4.90
2023-02-28T03:22:53.647Z,4.90
2023-02-28T03:25:25.127Z,4.90
2023-02-28T03:28:09.703Z,4.90
2023-02-28T03:30:52.829Z,4.90
2023-02-28T03:33:30.904Z,4.90
2023-02-28T03:36:08.565Z,4.90
2023-02-28T03:38:48.910Z,4.90
2023-02-28T03:41:34.298Z,4.80
2023-02-28T03:44:08.685Z,4.80
2023-02-28T03:46:41.892Z,4.80
2023-02-28T03:49:36.366Z,4.80
2023-02-28T03:52:07.285Z,4.70
2023-02-28T03:54:40.852Z,4.70
2023-02-28T03:57:29.536Z,4.70
2023-02-28T04:00:15.669Z,4.70
2023-02-28T04:02:42.994Z,4.70
2023-02-28T04:05:10.307Z,4.70
2023-02-28T04:07:38.010Z,4.60
2023-02-28T04:10:06.598Z,4.60
2023-02-28T04:12:34.132Z,4.60
2023-02-28T04:15:01.360Z,4.60
2023-02-28T04:17:28.643Z,4.60
2023-02-28T04:19:57.750Z,4.60
2023-02-28T04:22:28.110Z,4.60
2023-02-28T04:24:55.639Z,4.60
2023-02-28T04:27:23.381Z,4.60
2023-02-28T04:29:50.837Z,4.60
2023-02-28T04:32:18.344Z,4.60
2023-02-28T04:34:45.609Z,4.60
2023-02-28T04:37:14.205Z,4.60
2023-02-28T04:39:43.386Z,4.60
2023-02-28T04:42:11.810Z,4.60
2023-02-28T04:44:38.977Z,4.70
2023-02-28T04:47:06.391Z,4.60
2023-02-28T04:49:33.901Z,4.70
2023-02-28T04:52:01.095Z,4.70
2023-02-28T04:54:29.484Z,4.70
2023-02-28T04:56:56.846Z,4.70
2023-02-28T04:59:24.034Z,4.70
2023-02-28T05:01:52.188Z,4.70
2023-02-28T05:04:19.704Z,4.70
2023-02-28T05:06:47.210Z,4.70
2023-02-28T05:09:14.668Z,4.70
2023-02-28T05:11:42.876Z,4.70
2023-02-28T05:14:15.370Z,4.70
2023-02-28T05:16:42.728Z,4.60
2023-02-28T05:19:10.349Z,4.60
2023-02-28T05:21:40.896Z,4.60
2023-02-28T05:24:12.145Z,4.60
2023-02-28T05:26:42.325Z,4.60
2023-02-28T05:29:10.428Z,4.60
2023-02-28T05:31:38.044Z,4.60
2023-02-28T05:34:06.974Z,4.60
2023-02-28T05:36:35.060Z,4.60
2023-02-28T05:39:02.249Z,4.60
2023-02-28T05:41:29.689Z,4.60
2023-02-28T05:43:58.246Z,4.60
2023-02-28T05:46:25.346Z,4.60
2023-02-28T05:48:52.871Z,4.60
2023-02-28T05:51:20.531Z,4.60
2023-02-28T05:53:49.342Z,4.60
2023-02-28T05:56:16.852Z,4.60
2023-02-28T05:58:45.446Z,4.60
2023-02-28T06:01:34.536Z,4.60
2023-02-28T06:04:02.940Z,4.50
2023-02-28T06:06:30.710Z,4.50
2023-02-28T06:08:58.471Z,4.50
2023-02-28T06:11:29.265Z,4.50
2023-02-28T06:14:01.841Z,4.50
2023-02-28T06:16:30.588Z,4.50
2023-02-28T06:19:03.153Z,4.50
2023-02-28T06:21:31.078Z,4.50
2023-02-28T06:23:59.196Z,4.50
2023-02-28T06:26:26.567Z,4.50
2023-02-28T06:28:53.842Z,4.50
2023-02-28T06:31:21.198Z,4.50
2023-02-28T06:33:48.959Z,4.50
2023-02-28T06:36:17.321Z,4.50
2023-02-28T06:38:45.216Z,4.50
2023-02-28T06:41:13.232Z,4.50
2023-02-28T06:43:42.974Z,4.50
2023-02-28T06:46:16.357Z,4.50
2023-02-28T06:48:48.110Z,4.50
2023-02-28T06:51:18.095Z,4.50
2023-02-28T06:53:45.755Z,4.50
2023-02-28T06:56:16.212Z,4.50
2023-02-28T06:58:43.476Z,4.50
2023-02-28T07:01:10.899Z,4.50
2023-02-28T07:03:38.508Z,4.50
2023-02-28T07:06:06.801Z,4.50
2023-02-28T07:08:34.824Z,4.50
2023-02-28T07:11:02.038Z,4.50
2023-02-28T07:13:30.511Z,4.50
2023-02-28T07:16:05.211Z,4.50
2023-02-28T07:18:34.720Z,4.40
2023-02-28T07:21:09.285Z,4.40
2023-02-28T07:23:40.658Z,4.50
2023-02-28T07:26:17.574Z,4.50
2023-02-28T07:28:48.199Z,4.40
2023-02-28T07:31:20.951Z,4.50
2023-02-28T07:33:48.235Z,4.50
2023-02-28T07:36:20.150Z,4.50
2023-02-28T07:38:52.163Z,4.50
2023-02-28T07:41:21.829Z,4.50
2023-02-28T07:43:49.378Z,4.50
2023-02-28T07:46:17.902Z,4.50
2023-02-28T07:48:46.089Z,4.50
2023-02-28T07:51:14.077Z,4.50
2023-02-28T07:53:41.571Z,4.40
2023-02-28T07:56:09.129Z,4.50
2023-02-28T07:58:36.532Z,4.50
2023-02-28T08:01:11.526Z,4.50
2023-02-28T08:03:39.805Z,4.50
2023-02-28T08:06:09.555Z,4.60
2023-02-28T08:08:36.970Z,4.60
2023-02-28T08:11:05.317Z,4.60
2023-02-28T08:13:32.952Z,4.70
2023-02-28T08:16:03.624Z,4.70
2023-02-28T08:18:35.613Z,4.70
2023-02-28T08:21:11.375Z,4.80
2023-02-28T08:23:39.187Z,4.80
2023-02-28T08:26:06.581Z,4.80
2023-02-28T08:28:34.153Z,4.80
2023-02-28T08:31:01.272Z,4.80
2023-02-28T08:33:29.862Z,4.80
2023-02-28T08:35:58.183Z,4.80
2023-02-28T08:38:25.851Z,4.80
2023-02-28T08:41:06.602Z,4.80
2023-02-28T08:43:34.790Z,4.80
2023-02-28T08:46:02.199Z,4.90
2023-02-28T08:48:33.934Z,4.90
2023-02-28T08:51:08.795Z,5.00
2023-02-28T08:53:40.857Z,5.00
2023-02-28T08:56:13.920Z,5.00
2023-02-28T08:58:41.812Z,5.10
2023-02-28T09:01:15.220Z,5.10
2023-02-28T09:03:44.438Z,5.10
2023-02-28T09:06:12.852Z,5.10
2023-02-28T09:08:40.617Z,5.20
2023-02-28T09:11:08.354Z,5.20
2023-02-28T09:13:36.388Z,5.20
2023-02-28T09:16:05.869Z,5.20
2023-02-28T09:18:34.626Z,5.30
2023-02-28T09:21:04.840Z,5.20
2023-02-28T09:23:32.529Z,5.20
2023-02-28T09:25:59.866Z,5.30
2023-02-28T09:28:27.458Z,5.30
2023-02-28T09:30:55.889Z,5.20
2023-02-28T09:33:23.545Z,5.20
2023-02-28T09:35:52.035Z,5.30
2023-02-28T09:38:19.658Z,5.30
2023-02-28T09:40:53.097Z,5.40
2023-02-28T09:43:24.210Z,5.40
2023-02-28T09:46:02.082Z,5.50
2023-02-28T09:48:45.731Z,5.50
2023-02-28T09:51:19.147Z,5.50
2023-02-28T09:53:50.452Z,5.50
2023-02-28T09:56:35.120Z,5.60
2023-02-28T09:59:04.673Z,5.60
2023-02-28T10:01:54.348Z,5.70
2023-02-28T10:04:38.338Z,5.80
2023-02-28T10:07:31.804Z,5.80
2023-02-28T10:10:03.764Z,5.80
2023-02-28T10:12:33.016Z,5.90
2023-02-28T10:15:03.530Z,5.90
2023-02-28T10:17:55.001Z,6.00
2023-02-28T10:20:30.979Z,5.90
2023-02-28T10:23:00.879Z,5.90
2023-02-28T10:25:30.061Z,5.90
2023-02-28T10:28:09.633Z,5.90
2023-02-28T10:30:40.436Z,5.90
2023-02-28T10:33:13.340Z,5.90
2023-02-28T10:35:40.527Z,5.90
2023-02-28T10:38:21.494Z,6.00
2023-02-28T10:40:49.126Z,6.00
2023-02-28T10:43:16.505Z,6.10
2023-02-28T10:46:04.632Z,6.20
2023-02-28T10:48:35.798Z,6.40
2023-02-28T10:51:05.223Z,6.40
2023-02-28T10:54:03.088Z,6.50
2023-02-28T10:56:32.723Z,6.50
2023-02-28T10:59:02.098Z,6.50
2023-02-28T11:01:38.223Z,6.60
2023-02-28T11:04:27.392Z,6.50
2023-02-28T11:07:00.939Z,6.50
2023-02-28T11:09:37.361Z,6.50
2023-02-28T11:12:20.611Z,6.50
2023-02-28T11:14:58.206Z,6.50
2023-02-28T11:17:29.166Z,6.60
2023-02-28T11:20:21.409Z,6.60
2023-02-28T11:22:49.423Z,6.60
2023-02-28T11:25:24.468Z,6.70
2023-02-28T11:28:08.782Z,6.70
2023-02-28T11:30:36.021Z,6.70
2023-02-28T11:33:24.994Z,6.80
2023-02-28T11:35:54.230Z,6.80
2023-02-28T11:38:21.534Z,6.80
2023-02-28T11:40:56.565Z,6.80
2023-02-28T11:43:55.840Z,6.90
2023-02-28T11:46:42.219Z,6.90
2023-02-28T11:49:25.174Z,6.90
2023-02-28T11:52:18.687Z,6.90
2023-02-28T11:54:57.078Z,7.00
2023-02-28T11:57:58.276Z,7.00
2023-02-28T12:00:31.713Z,6.80
2023-02-28T12:03:17.358Z,6.90
2023-02-28T12:05:47.127Z,7.00
2023-02-28T12:08:27.783Z,7.00
2023-02-28T12:11:04.619Z,7.00
2023-02-28T12:13:45.209Z,7.00
2023-02-28T12:16:34.108Z,7.00
2023-02-28T12:19:26.551Z,6.90
2023-02-28T12:22:02.754Z,6.90
2023-02-28T12:24:56.393Z,6.90
2023-02-28T12:27:28.377Z,6.80
2023-02-28T12:29:58.450Z,6.80
2023-02-28T12:32:38.625Z,6.80
2023-02-28T12:35:18.421Z,6.80
2023-02-28T12:38:13.757Z,6.80
2023-02-28T12:41:04.602Z,6.80
2023-02-28T12:43:39.739Z,6.80
2023-02-28T12:46:16.531Z,6.70
2023-02-28T12:48:54.435Z,6.70
2023-02-28T12:51:31.143Z,6.70
2023-02-28T12:54:22.450Z,6.70
2023-02-28T12:57:19.893Z,6.70
2023-02-28T12:59:52.647Z,6.70
2023-02-28T13:02:58.659Z,6.70
2023-02-28T13:05:54.412Z,6.70
2023-02-28T13:09:02.107Z,6.70
2023-02-28T13:11:43.280Z,6.80
2023-02-28T13:14:33.811Z,6.80
2023-02-28T13:17:15.363Z,6.80
2023-02-28T13:19:46.841Z,6.80
2023-02-28T13:22:41.792Z,6.80
2023-02-28T13:25:24.300Z,6.90
2023-02-28T13:27:58.142Z,6.90
2023-02-28T13:31:10.502Z,6.90
2023-02-28T13:33:51.391Z,6.90
2023-02-28T13:36:18.640Z,6.90
2023-02-28T13:39:30.665Z,6.90
2023-02-28T13:41:58.070Z,6.90
2023-02-28T13:44:27.835Z,6.90
2023-02-28T13:47:15.202Z,6.80
2023-02-28T13:49:43.052Z,6.80
2023-02-28T13:52:10.448Z,6.80
2023-02-28T13:55:01.020Z,6.80
2023-02-28T13:57:51.341Z,6.80
2023-02-28T14:00:25.073Z,6.80
2023-02-28T14:03:03.638Z,6.80
2023-02-28T14:05:36.433Z,6.70
2023-02-28T14:08:24.343Z,6.60
2023-02-28T14:11:26.544Z,6.50
2023-02-28T14:13:57.709Z,6.50
2023-02-28T14:16:49.154Z,6.40
2023-02-28T14:19:32.160Z,6.50
2023-02-28T14:22:27.546Z,6.50
2023-02-28T14:25:36.180Z,6.50
2023-02-28T14:28:26.747Z,6.60
2023-02-28T14:31:11.153Z,6.60
2023-02-28T14:34:29.873Z,6.70
2023-02-28T14:37:31.508Z,6.70
2023-02-28T14:40:31.474Z,6.70
2023-02-28T14:43:02.681Z,6.80
2023-02-28T14:46:29.174Z,6.90
2023-02-28T14:49:54.187Z,6.90
2023-02-28T14:53:15.285Z,7.00
2023-02-28T14:59:29.268Z,7.00
2023-02-28T15:02:22.066Z,7.00
2023-02-28T15:05:22.832Z,7.00
2023-02-28T15:11:38.433Z,7.00
2023-02-28T15:18:53.998Z,7.00
2023-02-28T15:21:57.336Z,7.00
2023-02-28T15:24:54.530Z,7.10
2023-02-28T15:27:57.126Z,7.10
2023-02-28T15:34:03.943Z,7.10
2023-02-28T15:39:58.909Z,7.10
2023-02-28T15:42:55.720Z,7.00
2023-02-28T15:45:30.121Z,6.90
2023-02-28T15:48:02.626Z,6.80
2023-02-28T15:51:30.093Z,6.80
2023-02-28T15:54:03.649Z,6.70
2023-02-28T15:56:40.046Z,6.70
2023-02-28T15:59:09.613Z,6.70
2023-02-28T16:01:38.813Z,6.70
2023-02-28T16:04:20.026Z,6.70
2023-02-28T16:06:59.616Z,6.70
2023-02-28T16:09:34.338Z,6.70
2023-02-28T16:12:04.290Z,6.60
2023-02-28T16:14:32.256Z,6.60
2023-02-28T16:17:25.475Z,6.60
2023-02-28T16:19:53.334Z,6.60
2023-02-28T16:22:20.597Z,6.60
2023-02-28T16:24:47.855Z,6.60
2023-02-28T16:27:19.842Z,6.60
2023-02-28T16:29:47.940Z,6.60
2023-02-28T16:32:17.018Z,6.50
2023-02-28T16:34:45.367Z,6.50
2023-02-28T16:37:17.938Z,6.50
2023-02-28T16:39:46.328Z,6.50
2023-02-28T16:42:26.257Z,6.50
2023-02-28T16:44:54.504Z,6.50
2023-02-28T16:47:22.408Z,6.50
2023-02-28T16:49:49.704Z,6.40
2023-02-28T16:52:17.140Z,6.40
2023-02-28T16:54:44.487Z,6.40
2023-02-28T16:57:24.889Z,6.40
2023-02-28T16:59:52.069Z,6.40
2023-02-28T17:02:21.310Z,6.40
2023-02-28T17:04:49.017Z,6.40
2023-02-28T17:07:17.699Z,6.40
2023-02-28T17:09:46.766Z,6.40
2023-02-28T17:12:14.134Z,6.50
2023-02-28T17:14:41.634Z,6.40
2023-02-28T17:17:12.089Z,6.40
2023-02-28T17:19:44.096Z,6.30
2023-02-28T17:22:12.043Z,6.30
2023-02-28T17:24:39.194Z,6.20
2023-02-28T17:27:07.131Z,6.20
2023-02-28T17:29:34.294Z,6.10
2023-02-28T17:32:12.222Z,6.00
2023-02-28T17:34:45.061Z,6.00
2023-02-28T17:37:12.483Z,6.00
2023-02-28T17:39:39.997Z,6.00
2023-02-28T17:42:07.661Z,6.00
2023-02-28T17:44:35.037Z,6.00
2023-02-28T17:47:02.349Z,6.00
2023-02-28T17:49:29.809Z,5.90
2023-02-28T17:51:57.041Z,5.90
2023-02-28T17:54:24.147Z,5.90
2023-02-28T17:56:51.331Z,6.00
2023-02-28T17:59:18.614Z,6.00
2023-02-28T18:01:45.795Z,6.00
2023-02-28T18:04:13.130Z,6.00
2023-02-28T18:06:52.821Z,5.90
2023-02-28T18:09:25.241Z,5.90
2023-02-28T18:11:54.606Z,5.90
2023-02-28T18:14:25.124Z,6.00
2023-02-28T18:16:53.976Z,6.00
2023-02-28T18:19:21.316Z,6.00
2023-02-28T18:21:50.979Z,6.00
2023-02-28T18:24:20.093Z,6.00
2023-02-28T18:26:47.252Z,6.00
2023-02-28T18:29:26.709Z,6.00
2023-02-28T18:31:56.023Z,6.00
2023-02-28T18:34:24.692Z,6.00
2023-02-28T18:36:53.262Z,6.00
2023-02-28T18:39:20.944Z,6.00
2023-02-28T18:41:48.394Z,6.00
2023-02-28T18:44:20.264Z,6.00
2023-02-28T18:46:49.294Z,6.00
2023-02-28T18:49:17.361Z,6.00
2023-02-28T18:51:45.591Z,6.10
2023-02-28T18:54:14.397Z,6.10
2023-02-28T18:56:42.235Z,6.10
2023-02-28T18:59:09.885Z,6.10
2023-02-28T19:01:37.367Z,6.10
2023-02-28T19:04:05.305Z,6.10
2023-02-28T19:06:33.191Z,6.10
2023-02-28T19:09:02.384Z,6.20
2023-02-28T19:11:30.100Z,6.20
2023-02-28T19:13:57.377Z,6.20
2023-02-28T19:16:25.663Z,6.20
2023-02-28T19:18:53.301Z,6.20
2023-02-28T19:21:23.028Z,6.20
2023-02-28T19:23:50.302Z,6.20
2023-02-28T19:26:21.127Z,6.20
2023-02-28T19:28:48.751Z,6.20
2023-02-28T19:31:25.449Z,6.10
2023-02-28T19:33:53.239Z,6.10
2023-02-28T19:36:21.796Z,6.10
2023-02-28T19:38:49.424Z,6.10
2023-02-28T19:41:17.698Z,6.10
2023-02-28T19:43:45.008Z,6.20
2023-02-28T19:46:13.312Z,6.20
2023-02-28T19:48:42.678Z,6.20
2023-02-28T19:51:12.594Z,6.20
2023-02-28T19:53:41.954Z,6.20
2023-02-28T19:56:09.915Z,6.20
2023-02-28T19:58:37.533Z,6.20
2023-02-28T20:01:13.788Z,6.20
2023-02-28T20:03:41.644Z,6.20
2023-02-28T20:06:13.822Z,6.20
2023-02-28T20:08:41.418Z,6.20
2023-02-28T20:11:11.465Z,6.20
2023-02-28T20:13:39.191Z,6.20
2023-02-28T20:16:09.802Z,6.20
2023-02-28T20:18:38.804Z,6.20
2023-02-28T20:21:09.252Z,6.20
2023-02-28T20:23:38.915Z,6.20
2023-02-28T20:26:06.543Z,6.20
2023-02-28T20:28:33.780Z,6.20
2023-02-28T20:31:01.285Z,6.20
2023-02-28T20:33:28.733Z,6.20
2023-02-28T20:36:05.578Z,6.10
2023-02-28T20:38:33.369Z,6.10
2023-02-28T20:41:02.303Z,6.10
2023-02-28T20:43:29.845Z,6.10
2023-02-28T20:46:01.553Z,6.10
2023-02-28T20:48:33.010Z,6.10
2023-02-28T20:51:00.610Z,6.10
2023-02-28T20:53:28.520Z,6.00
2023-02-28T20:55:58.147Z,6.00
2023-02-28T20:58:27.792Z,6.00
2023-02-28T21:01:26.132Z,6.00
2023-02-28T21:03:54.830Z,6.00
2023-02-28T21:06:29.161Z,5.90
2023-02-28T21:08:57.358Z,5.90
2023-02-28T21:11:27.784Z,5.90
2023-02-28T21:13:55.612Z,5.90
2023-02-28T21:16:25.559Z,5.90
2023-02-28T21:18:53.296Z,5.90
2023-02-28T21:21:22.894Z,5.90
2023-02-28T21:23:52.221Z,5.90
2023-02-28T21:26:22.577Z,5.90
2023-02-28T21:28:55.990Z,5.90
2023-02-28T21:31:25.437Z,5.90
2023-02-28T21:33:54.548Z,5.90
2023-02-28T21:36:24.790Z,5.90
2023-02-28T21:38:57.817Z,5.90
2023-02-28T21:41:25.957Z,5.90
2023-02-28T21:43:53.879Z,5.90
2023-02-28T21:46:27.120Z,5.90
2023-02-28T21:48:55.148Z,6.00
2023-02-28T21:51:24.963Z,5.90
2023-02-28T21:53:52.214Z,6.00
2023-02-28T21:56:24.583Z,6.00
2023-02-28T21:59:00.607Z,6.00
2023-02-28T22:01:31.244Z,6.00
2023-02-28T22:04:00.032Z,6.00
2023-02-28T22:06:30.932Z,6.00
2023-02-28T22:09:02.657Z,6.00
2023-02-28T22:11:29.952Z,6.00
2023-02-28T22:13:58.265Z,6.10
2023-02-28T22:16:29.519Z,6.10
2023-02-28T22:18:58.925Z,6.10
2023-02-28T22:21:26.427Z,6.10
2023-02-28T22:23:53.723Z,6.10
2023-02-28T22:26:22.702Z,6.00
2023-02-28T22:28:50.744Z,6.00
2023-02-28T22:31:22.525Z,6.00
2023-02-28T22:33:50.884Z,6.00
2023-02-28T22:36:19.923Z,5.90
2023-02-28T22:38:48.937Z,5.90
2023-02-28T22:41:16.139Z,5.90
2023-02-28T22:43:44.364Z,5.80
2023-02-28T22:46:13.696Z,5.80
2023-02-28T22:48:41.146Z,5.70
2023-02-28T22:51:15.116Z,5.70
2023-02-28T22:53:44.793Z,5.60
2023-02-28T22:56:14.002Z,5.50
2023-02-28T22:58:41.322Z,5.50
2023-02-28T23:01:15.183Z,5.50
2023-02-28T23:03:43.322Z,5.40
2023-02-28T23:06:20.262Z,5.40
2023-02-28T23:08:48.067Z,5.40
2023-02-28T23:11:23.521Z,5.30
2023-02-28T23:13:59.286Z,5.30
2023-02-28T23:16:29.567Z,5.30
2023-02-28T23:18:58.482Z,5.20
2023-02-28T23:21:27.061Z,5.20
2023-02-28T23:23:55.116Z,5.20
2023-02-28T23:26:22.909Z,5.10
2023-02-28T23:28:50.412Z,5.10
2023-02-28T23:31:17.823Z,5.10
2023-02-28T23:33:45.304Z,5.10
2023-02-28T23:36:15.151Z,5.10
2023-02-28T23:38:46.074Z,5.00
2023-02-28T23:41:14.429Z,5.00
2023-02-28T23:43:41.628Z,5.00
2023-02-28T23:46:10.750Z,5.00
2023-02-28T23:48:38.650Z,5.00
2023-02-28T23:51:09.616Z,4.90
2023-02-28T23:53:42.151Z,4.90
2023-02-28T23:56:11.280Z,4.90
2023-02-28T23:58:38.347Z,4.90
